sensor_id;sensor_type;location;lat;lon;timestamp;pressure;altitude;pressure_sealevel;temperature;humidity
39265;BME280;42646;51.910;7.724;2023-05-21T09:29:25;101037.88;;;18.18;83.46
39265;BME280;42646;51.910;7.724;2023-05-21T09:31:54;101043.38;;;18.24;83.84
39265;BME280;42646;51.910;7.724;2023-05-21T09:34:23;101039.97;;;18.30;84.03
39265;BME280;42646;51.910;7.724;2023-05-21T09:36:55;101044.63;;;18.36;83.49
39265;BME280;42646;51.910;7.724;2023-05-21T09:39:26;101047.28;;;18.45;84.22
39265;BME280;42646;51.910;7.724;2023-05-21T09:41:56;101049.53;;;18.56;83.92
39265;BME280;42646;51.910;7.724;2023-05-21T09:44:26;101048.25;;;18.66;83.54
39265;BME280;42646;51.910;7.724;2023-05-21T09:46:56;101054.63;;;18.74;82.34
39265;BME280;42646;51.910;7.724;2023-05-21T09:49:25;101053.06;;;18.79;82.43
39265;BME280;42646;51.910;7.724;2023-05-21T09:51:54;101058.31;;;18.81;81.68
39265;BME280;42646;51.910;7.724;2023-05-21T09:54:23;101054.88;;;18.87;81.35
39265;BME280;42646;51.910;7.724;2023-05-21T09:56:51;101046.88;;;18.93;81.20
39265;BME280;42646;51.910;7.724;2023-05-21T09:59:19;101054.88;;;19.02;81.43
39265;BME280;42646;51.910;7.724;2023-05-21T10:01:50;101041.69;;;19.07;81.57
39265;BME280;42646;51.910;7.724;2023-05-21T10:04:18;101039.09;;;19.13;81.25
39265;BME280;42646;51.910;7.724;2023-05-21T10:06:46;101039.38;;;19.18;81.03
39265;BME280;42646;51.910;7.724;2023-05-21T10:09:17;101039.47;;;19.25;80.70
39265;BME280;42646;51.910;7.724;2023-05-21T10:11:45;101031.47;;;19.32;80.58
39265;BME280;42646;51.910;7.724;2023-05-21T10:14:18;101025.16;;;19.39;80.55
39265;BME280;42646;51.910;7.724;2023-05-21T10:16:46;101022.53;;;19.46;79.92
39265;BME280;42646;51.910;7.724;2023-05-21T10:19:15;101027.19;;;19.52;79.70
39265;BME280;42646;51.910;7.724;2023-05-21T10:21:44;101012.09;;;19.58;79.62
39265;BME280;42646;51.910;7.724;2023-05-21T10:24:12;101014.72;;;19.66;78.97
39265;BME280;42646;51.910;7.724;2023-05-21T10:26:41;101008.63;;;19.79;79.13
39265;BME280;42646;51.910;7.724;2023-05-21T10:29:09;101006.69;;;19.87;78.76
39265;BME280;42646;51.910;7.724;2023-05-21T10:31:38;101003.03;;;19.95;78.79
39265;BME280;42646;51.910;7.724;2023-05-21T10:34:06;101000.00;;;20.05;78.42
39265;BME280;42646;51.910;7.724;2023-05-21T10:36:36;100999.88;;;20.13;78.50
39265;BME280;42646;51.910;7.724;2023-05-21T10:39:05;100995.84;;;20.23;78.51
39265;BME280;42646;51.910;7.724;2023-05-21T10:41:41;100993.44;;;20.35;78.66
39265;BME280;42646;51.910;7.724;2023-05-21T10:44:18;100996.66;;;20.45;77.90
39265;BME280;42646;51.910;7.724;2023-05-21T10:47:07;100990.75;;;20.57;76.68
39265;BME280;42646;51.910;7.724;2023-05-21T10:49:53;100986.41;;;20.62;75.48
39265;BME280;42646;51.910;7.724;2023-05-21T10:52:34;100979.19;;;20.69;75.49
39265;BME280;42646;51.910;7.724;2023-05-21T10:55:12;100985.03;;;20.73;74.61
39265;BME280;42646;51.910;7.724;2023-05-21T10:58:05;100986.34;;;20.77;73.89
39265;BME280;42646;51.910;7.724;2023-05-21T11:00:37;100982.97;;;20.75;73.61
39265;BME280;42646;51.910;7.724;2023-05-21T11:03:06;100979.25;;;20.76;73.40
39265;BME280;42646;51.910;7.724;2023-05-21T11:05:37;100985.09;;;20.79;73.40
39265;BME280;42646;51.910;7.724;2023-05-21T11:08:20;100990.97;;;20.83;73.09
39265;BME280;42646;51.910;7.724;2023-05-21T11:10:52;100984.97;;;20.88;73.76
39265;BME280;42646;51.910;7.724;2023-05-21T11:13:24;100976.63;;;20.89;73.15
39265;BME280;42646;51.910;7.724;2023-05-21T11:16:03;100972.06;;;20.90;73.31
39265;BME280;42646;51.910;7.724;2023-05-21T11:19:00;100971.47;;;20.94;73.68
39265;BME280;42646;51.910;7.724;2023-05-21T11:21:29;100963.59;;;20.99;73.80
39265;BME280;42646;51.910;7.724;2023-05-21T11:24:05;100964.84;;;21.03;74.21
39265;BME280;42646;51.910;7.724;2023-05-21T11:26:58;100963.44;;;21.07;74.33
39265;BME280;42646;51.910;7.724;2023-05-21T11:29:40;100957.19;;;21.07;74.23
39265;BME280;42646;51.910;7.724;2023-05-21T11:32:09;100959.94;;;21.14;73.79
39265;BME280;42646;51.910;7.724;2023-05-21T11:34:38;100967.22;;;21.13;73.21
39265;BME280;42646;51.910;7.724;2023-05-21T11:37:31;100964.06;;;21.10;72.92
39265;BME280;42646;51.910;7.724;2023-05-21T11:40:18;100968.44;;;21.11;73.04
39265;BME280;42646;51.910;7.724;2023-05-21T11:42:50;100961.19;;;21.11;73.72
39265;BME280;42646;51.910;7.724;2023-05-21T11:45:19;100968.28;;;21.19;73.66
39265;BME280;42646;51.910;7.724;2023-05-21T11:47:47;100964.34;;;21.28;74.79
39265;BME280;42646;51.910;7.724;2023-05-21T11:50:17;100966.72;;;21.38;74.42
39265;BME280;42646;51.910;7.724;2023-05-21T11:52:45;100965.53;;;21.47;73.77
39265;BME280;42646;51.910;7.724;2023-05-21T11:55:13;100965.13;;;21.56;73.29
39265;BME280;42646;51.910;7.724;2023-05-21T11:57:43;100957.47;;;21.67;73.28
39265;BME280;42646;51.910;7.724;2023-05-21T12:00:14;100955.41;;;21.75;73.19
39265;BME280;42646;51.910;7.724;2023-05-21T12:02:46;100957.50;;;21.80;72.17
39265;BME280;42646;51.910;7.724;2023-05-21T12:05:14;100951.06;;;21.87;72.55
39265;BME280;42646;51.910;7.724;2023-05-21T12:07:45;100957.75;;;21.92;71.11
39265;BME280;42646;51.910;7.724;2023-05-21T12:10:15;100951.28;;;21.93;71.19
39265;BME280;42646;51.910;7.724;2023-05-21T12:12:48;100956.09;;;21.97;70.81
39265;BME280;42646;51.910;7.724;2023-05-21T12:15:23;100954.81;;;22.00;70.76
39265;BME280;42646;51.910;7.724;2023-05-21T12:17:51;100953.38;;;22.04;71.13
39265;BME280;42646;51.910;7.724;2023-05-21T12:20:19;100947.75;;;22.05;70.89
39265;BME280;42646;51.910;7.724;2023-05-21T12:22:48;100959.06;;;22.16;70.71
39265;BME280;42646;51.910;7.724;2023-05-21T12:25:17;100949.88;;;22.23;70.33
39265;BME280;42646;51.910;7.724;2023-05-21T12:27:47;100956.56;;;22.27;70.00
39265;BME280;42646;51.910;7.724;2023-05-21T12:30:15;100964.28;;;22.30;69.06
39265;BME280;42646;51.910;7.724;2023-05-21T12:32:43;100963.03;;;22.33;69.59
39265;BME280;42646;51.910;7.724;2023-05-21T12:35:19;100953.03;;;22.33;69.24
39265;BME280;42646;51.910;7.724;2023-05-21T12:37:48;100958.66;;;22.38;69.26
39265;BME280;42646;51.910;7.724;2023-05-21T12:40:17;100968.88;;;22.43;68.88
39265;BME280;42646;51.910;7.724;2023-05-21T12:42:45;100965.75;;;22.46;69.17
39265;BME280;42646;51.910;7.724;2023-05-21T12:45:15;100956.16;;;22.50;68.59
39265;BME280;42646;51.910;7.724;2023-05-21T12:47:47;100958.25;;;22.55;68.53
39265;BME280;42646;51.910;7.724;2023-05-21T12:50:19;100959.69;;;22.57;68.62
39265;BME280;42646;51.910;7.724;2023-05-21T12:52:47;100951.34;;;22.59;68.77
39265;BME280;42646;51.910;7.724;2023-05-21T12:55:15;100950.50;;;22.65;68.76
39265;BME280;42646;51.910;7.724;2023-05-21T12:57:43;100942.97;;;22.74;68.62
39265;BME280;42646;51.910;7.724;2023-05-21T13:00:12;100943.81;;;22.81;68.51
39265;BME280;42646;51.910;7.724;2023-05-21T13:02:42;100942.56;;;22.90;67.82
39265;BME280;42646;51.910;7.724;2023-05-21T13:05:15;100948.38;;;22.93;67.12
39265;BME280;42646;51.910;7.724;2023-05-21T13:07:43;100951.53;;;22.97;67.52
39265;BME280;42646;51.910;7.724;2023-05-21T13:10:13;100952.56;;;23.03;67.26
39265;BME280;42646;51.910;7.724;2023-05-21T13:12:42;100947.97;;;23.03;66.76
39265;BME280;42646;51.910;7.724;2023-05-21T13:15:10;100949.63;;;23.04;66.61
39265;BME280;42646;51.910;7.724;2023-05-21T13:17:38;100940.44;;;23.05;67.23
39265;BME280;42646;51.910;7.724;2023-05-21T13:20:08;100938.97;;;23.09;66.75
39265;BME280;42646;51.910;7.724;2023-05-21T13:22:38;100939.38;;;23.13;67.18
39265;BME280;42646;51.910;7.724;2023-05-21T13:25:08;100931.25;;;23.13;66.66
39265;BME280;42646;51.910;7.724;2023-05-21T13:27:36;100927.25;;;23.15;66.77
39265;BME280;42646;51.910;7.724;2023-05-21T13:30:05;100921.00;;;23.15;66.18
39265;BME280;42646;51.910;7.724;2023-05-21T13:32:33;100922.66;;;23.16;66.52
39265;BME280;42646;51.910;7.724;2023-05-21T13:35:02;100915.97;;;23.18;67.12
39265;BME280;42646;51.910;7.724;2023-05-21T13:37:33;100907.38;;;23.22;66.30
39265;BME280;42646;51.910;7.724;2023-05-21T13:40:03;100906.75;;;23.26;66.86
39265;BME280;42646;51.910;7.724;2023-05-21T13:42:31;100911.09;;;23.34;66.51
39265;BME280;42646;51.910;7.724;2023-05-21T13:44:59;100909.81;;;23.43;66.61
39265;BME280;42646;51.910;7.724;2023-05-21T13:47:27;100905.78;;;23.52;66.06
39265;BME280;42646;51.910;7.724;2023-05-21T13:49:55;100906.59;;;23.66;66.62
39265;BME280;42646;51.910;7.724;2023-05-21T13:52:23;100915.19;;;23.88;66.84
39265;BME280;42646;51.910;7.724;2023-05-21T13:54:52;100909.84;;;24.06;66.17
39265;BME280;42646;51.910;7.724;2023-05-21T13:57:20;100910.72;;;24.25;65.22
39265;BME280;42646;51.910;7.724;2023-05-21T13:59:47;100905.59;;;24.42;65.05
39265;BME280;42646;51.910;7.724;2023-05-21T14:02:16;100900.66;;;24.57;63.83
39265;BME280;42646;51.910;7.724;2023-05-21T14:04:43;100896.94;;;24.70;63.57
39265;BME280;42646;51.910;7.724;2023-05-21T14:07:11;100901.72;;;24.74;62.33
39265;BME280;42646;51.910;7.724;2023-05-21T14:09:39;100898.34;;;24.79;62.91
39265;BME280;42646;51.910;7.724;2023-05-21T14:12:09;100900.22;;;24.78;62.78
39265;BME280;42646;51.910;7.724;2023-05-21T14:14:37;100896.72;;;24.71;62.12
39265;BME280;42646;51.910;7.724;2023-05-21T14:17:05;100896.19;;;24.63;62.75
39265;BME280;42646;51.910;7.724;2023-05-21T14:19:32;100902.31;;;24.58;62.95
39265;BME280;42646;51.910;7.724;2023-05-21T14:22:00;100902.81;;;24.48;62.58
39265;BME280;42646;51.910;7.724;2023-05-21T14:24:28;100894.72;;;24.42;62.38
39265;BME280;42646;51.910;7.724;2023-05-21T14:26:56;100888.91;;;24.38;62.21
39265;BME280;42646;51.910;7.724;2023-05-21T14:29:25;100893.13;;;24.34;62.58
39265;BME280;42646;51.910;7.724;2023-05-21T14:31:53;100891.84;;;24.30;62.77
39265;BME280;42646;51.910;7.724;2023-05-21T14:34:20;100889.38;;;24.29;62.36
39265;BME280;42646;51.910;7.724;2023-05-21T14:36:48;100881.44;;;24.27;62.07
39265;BME280;42646;51.910;7.724;2023-05-21T14:39:16;100880.22;;;24.23;62.10
39265;BME280;42646;51.910;7.724;2023-05-21T14:41:44;100880.28;;;24.16;62.49
39265;BME280;42646;51.910;7.724;2023-05-21T14:44:11;100870.69;;;24.14;62.08
39265;BME280;42646;51.910;7.724;2023-05-21T14:46:40;100871.06;;;24.17;62.78
39265;BME280;42646;51.910;7.724;2023-05-21T14:49:08;100868.97;;;24.19;62.85
39265;BME280;42646;51.910;7.724;2023-05-21T14:51:37;100865.34;;;24.25;63.05
39265;BME280;42646;51.910;7.724;2023-05-21T14:54:04;100861.50;;;24.33;62.86
39265;BME280;42646;51.910;7.724;2023-05-21T14:56:32;100866.69;;;24.41;62.13
39265;BME280;42646;51.910;7.724;2023-05-21T14:59:00;100860.16;;;24.49;62.00
39265;BME280;42646;51.910;7.724;2023-05-21T15:01:27;100859.84;;;24.57;62.01
39265;BME280;42646;51.910;7.724;2023-05-21T15:03:56;100863.06;;;24.66;61.52
39265;BME280;42646;51.910;7.724;2023-05-21T15:06:25;100866.03;;;24.64;61.30
39265;BME280;42646;51.910;7.724;2023-05-21T15:08:53;100866.63;;;24.66;61.38
39265;BME280;42646;51.910;7.724;2023-05-21T15:11:21;100861.81;;;24.68;61.20
39265;BME280;42646;51.910;7.724;2023-05-21T15:13:48;100862.16;;;24.72;61.38
39265;BME280;42646;51.910;7.724;2023-05-21T15:16:16;100864.84;;;24.78;61.67
39265;BME280;42646;51.910;7.724;2023-05-21T15:18:45;100861.81;;;24.87;61.49
39265;BME280;42646;51.910;7.724;2023-05-21T15:21:14;100851.66;;;24.94;60.97
39265;BME280;42646;51.910;7.724;2023-05-21T15:23:42;100853.47;;;25.00;60.89
39265;BME280;42646;51.910;7.724;2023-05-21T15:26:10;100860.31;;;25.09;61.02
39265;BME280;42646;51.910;7.724;2023-05-21T15:28:38;100853.25;;;25.01;60.66
39265;BME280;42646;51.910;7.724;2023-05-21T15:31:06;100852.41;;;25.01;60.86
39265;BME280;42646;51.910;7.724;2023-05-21T15:33:33;100851.09;;;25.10;61.43
39265;BME280;42646;51.910;7.724;2023-05-21T15:36:02;100852.06;;;25.16;61.21
39265;BME280;42646;51.910;7.724;2023-05-21T15:38:32;100846.38;;;25.17;60.52
39265;BME280;42646;51.910;7.724;2023-05-21T15:40:59;100844.63;;;25.23;60.83
39265;BME280;42646;51.910;7.724;2023-05-21T15:43:27;100844.28;;;25.31;60.57
39265;BME280;42646;51.910;7.724;2023-05-21T15:45:55;100845.66;;;25.40;59.91
39265;BME280;42646;51.910;7.724;2023-05-21T15:48:22;100852.50;;;25.43;59.81
39265;BME280;42646;51.910;7.724;2023-05-21T15:50:50;100855.22;;;25.43;59.87
39265;BME280;42646;51.910;7.724;2023-05-21T15:53:18;100860.31;;;25.39;59.60
39265;BME280;42646;51.910;7.724;2023-05-21T15:55:47;100852.97;;;25.40;60.32
39265;BME280;42646;51.910;7.724;2023-05-21T15:58:15;100858.44;;;25.40;60.73
39265;BME280;42646;51.910;7.724;2023-05-21T16:00:42;100840.44;;;25.39;60.42
39265;BME280;42646;51.910;7.724;2023-05-21T16:03:10;100847.78;;;25.38;60.59
39265;BME280;42646;51.910;7.724;2023-05-21T16:05:38;100855.09;;;25.38;60.79
39265;BME280;42646;51.910;7.724;2023-05-21T16:08:06;100854.75;;;25.34;60.67
39265;BME280;42646;51.910;7.724;2023-05-21T16:10:36;100856.00;;;25.31;60.22
39265;BME280;42646;51.910;7.724;2023-05-21T16:13:06;100857.91;;;25.31;60.51
39265;BME280;42646;51.910;7.724;2023-05-21T16:15:34;100849.16;;;25.29;60.61
39265;BME280;42646;51.910;7.724;2023-05-21T16:18:02;100845.22;;;25.25;60.44
39265;BME280;42646;51.910;7.724;2023-05-21T16:20:30;100853.38;;;25.25;61.38
39265;BME280;42646;51.910;7.724;2023-05-21T16:22:58;100852.31;;;25.26;61.46
39265;BME280;42646;51.910;7.724;2023-05-21T16:25:26;100840.59;;;25.25;61.34
39265;BME280;42646;51.910;7.724;2023-05-21T16:27:54;100842.50;;;25.25;61.67
39265;BME280;42646;51.910;7.724;2023-05-21T16:30:23;100838.13;;;25.24;61.46
39265;BME280;42646;51.910;7.724;2023-05-21T16:32:50;100834.41;;;25.18;61.84
39265;BME280;42646;51.910;7.724;2023-05-21T16:35:18;100828.38;;;25.16;61.88
39265;BME280;42646;51.910;7.724;2023-05-21T16:37:46;100833.81;;;25.16;62.02
39265;BME280;42646;51.910;7.724;2023-05-21T16:40:14;100826.34;;;25.12;61.50
39265;BME280;42646;51.910;7.724;2023-05-21T16:42:41;100827.03;;;25.07;61.87
39265;BME280;42646;51.910;7.724;2023-05-21T16:45:09;100825.38;;;25.06;62.00
39265;BME280;42646;51.910;7.724;2023-05-21T16:47:40;100823.09;;;25.03;61.54
39265;BME280;42646;51.910;7.724;2023-05-21T16:50:08;100825.81;;;25.03;62.15
39265;BME280;42646;51.910;7.724;2023-05-21T16:52:36;100819.75;;;25.01;62.31
39265;BME280;42646;51.910;7.724;2023-05-21T16:55:04;100818.09;;;25.00;62.26
39265;BME280;42646;51.910;7.724;2023-05-21T16:57:32;100811.00;;;24.99;62.07
39265;BME280;42646;51.910;7.724;2023-05-21T17:00:00;100815.84;;;24.97;61.87
39265;BME280;42646;51.910;7.724;2023-05-21T17:02:29;100810.69;;;24.89;61.76
39265;BME280;42646;51.910;7.724;2023-05-21T17:04:58;100801.34;;;24.85;61.77
39265;BME280;42646;51.910;7.724;2023-05-21T17:07:26;100800.13;;;24.81;62.43
39265;BME280;42646;51.910;7.724;2023-05-21T17:09:53;100796.81;;;24.78;62.66
39265;BME280;42646;51.910;7.724;2023-05-21T17:12:21;100801.63;;;24.76;62.96
39265;BME280;42646;51.910;7.724;2023-05-21T17:14:49;100806.47;;;24.74;63.36
39265;BME280;42646;51.910;7.724;2023-05-21T17:17:17;100801.47;;;24.71;63.65
39265;BME280;42646;51.910;7.724;2023-05-21T17:19:45;100806.34;;;24.69;63.98
39265;BME280;42646;51.910;7.724;2023-05-21T17:22:14;100806.78;;;24.66;63.60
39265;BME280;42646;51.910;7.724;2023-05-21T17:24:42;100806.41;;;24.63;63.71
39265;BME280;42646;51.910;7.724;2023-05-21T17:27:11;100810.63;;;24.59;63.93
39265;BME280;42646;51.910;7.724;2023-05-21T17:29:38;100807.56;;;24.55;63.99
39265;BME280;42646;51.910;7.724;2023-05-21T17:32:06;100802.78;;;24.50;63.94
39265;BME280;42646;51.910;7.724;2023-05-21T17:34:34;100806.78;;;24.48;64.13
39265;BME280;42646;51.910;7.724;2023-05-21T17:37:02;100797.19;;;24.45;64.28
39265;BME280;42646;51.910;7.724;2023-05-21T17:39:31;100814.78;;;24.43;64.26
39265;BME280;42646;51.910;7.724;2023-05-21T17:41:59;100810.41;;;24.42;64.34
39265;BME280;42646;51.910;7.724;2023-05-21T17:44:27;100813.59;;;24.39;64.33
39265;BME280;42646;51.910;7.724;2023-05-21T17:46:55;100803.16;;;24.36;64.78
39265;BME280;42646;51.910;7.724;2023-05-21T17:49:23;100805.47;;;24.32;64.71
39265;BME280;42646;51.910;7.724;2023-05-21T17:51:50;100797.50;;;24.31;64.64
39265;BME280;42646;51.910;7.724;2023-05-21T17:54:19;100806.97;;;24.28;65.22
39265;BME280;42646;51.910;7.724;2023-05-21T17:56:49;100805.53;;;24.25;65.08
39265;BME280;42646;51.910;7.724;2023-05-21T17:59:16;100804.69;;;24.25;65.25
39265;BME280;42646;51.910;7.724;2023-05-21T18:01:44;100804.09;;;24.23;65.63
39265;BME280;42646;51.910;7.724;2023-05-21T18:04:12;100803.25;;;24.22;65.63
39265;BME280;42646;51.910;7.724;2023-05-21T18:06:41;100803.50;;;24.21;66.01
39265;BME280;42646;51.910;7.724;2023-05-21T18:09:09;100796.59;;;24.18;65.81
39265;BME280;42646;51.910;7.724;2023-05-21T18:11:41;100808.75;;;24.16;66.33
39265;BME280;42646;51.910;7.724;2023-05-21T18:14:10;100801.91;;;24.13;66.56
39265;BME280;42646;51.910;7.724;2023-05-21T18:16:39;100802.94;;;24.12;66.44
39265;BME280;42646;51.910;7.724;2023-05-21T18:19:06;100803.16;;;24.11;66.71
39265;BME280;42646;51.910;7.724;2023-05-21T18:21:34;100804.47;;;24.08;67.37
39265;BME280;42646;51.910;7.724;2023-05-21T18:24:02;100804.66;;;24.07;67.56
39265;BME280;42646;51.910;7.724;2023-05-21T18:26:31;100804.06;;;24.05;67.47
39265;BME280;42646;51.910;7.724;2023-05-21T18:28:59;100805.34;;;24.02;67.21
39265;BME280;42646;51.910;7.724;2023-05-21T18:31:28;100803.91;;;23.99;67.10
39265;BME280;42646;51.910;7.724;2023-05-21T18:33:55;100807.66;;;23.98;67.37
39265;BME280;42646;51.910;7.724;2023-05-21T18:36:23;100806.69;;;23.93;66.89
39265;BME280;42646;51.910;7.724;2023-05-21T18:38:52;100801.47;;;23.91;67.30
39265;BME280;42646;51.910;7.724;2023-05-21T18:41:20;100808.16;;;23.89;67.48
39265;BME280;42646;51.910;7.724;2023-05-21T18:43:47;100808.63;;;23.86;67.89
39265;BME280;42646;51.910;7.724;2023-05-21T18:46:15;100801.72;;;23.83;67.80
39265;BME280;42646;51.910;7.724;2023-05-21T18:48:44;100798.66;;;23.80;67.99
39265;BME280;42646;51.910;7.724;2023-05-21T18:51:13;100804.50;;;23.77;67.70
39265;BME280;42646;51.910;7.724;2023-05-21T18:53:41;100805.78;;;23.74;68.20
39265;BME280;42646;51.910;7.724;2023-05-21T18:56:09;100803.72;;;23.69;68.38
39265;BME280;42646;51.910;7.724;2023-05-21T18:58:36;100800.41;;;23.67;68.79
39265;BME280;42646;51.910;7.724;2023-05-21T19:01:05;100797.53;;;23.62;68.94
39265;BME280;42646;51.910;7.724;2023-05-21T19:03:33;100806.28;;;23.58;68.98
39265;BME280;42646;51.910;7.724;2023-05-21T19:06:02;100805.28;;;23.52;69.40
39265;BME280;42646;51.910;7.724;2023-05-21T19:08:30;100810.53;;;23.47;69.45
39265;BME280;42646;51.910;7.724;2023-05-21T19:10:57;100808.69;;;23.41;69.62
39265;BME280;42646;51.910;7.724;2023-05-21T19:13:26;100812.94;;;23.37;69.70
39265;BME280;42646;51.910;7.724;2023-05-21T19:15:53;100809.81;;;23.33;70.03
39265;BME280;42646;51.910;7.724;2023-05-21T19:18:22;100816.72;;;23.29;70.25
39265;BME280;42646;51.910;7.724;2023-05-21T19:20:55;100817.38;;;23.25;70.17
39265;BME280;42646;51.910;7.724;2023-05-21T19:23:24;100826.19;;;23.20;70.77
39265;BME280;42646;51.910;7.724;2023-05-21T19:25:52;100822.00;;;23.17;70.79
39265;BME280;42646;51.910;7.724;2023-05-21T19:28:20;100828.09;;;23.13;71.32
39265;BME280;42646;51.910;7.724;2023-05-21T19:30:47;100835.84;;;23.09;71.78
39265;BME280;42646;51.910;7.724;2023-05-21T19:33:16;100852.97;;;23.03;72.78
39265;BME280;42646;51.910;7.724;2023-05-21T19:35:43;100869.69;;;22.93;73.71
39265;BME280;42646;51.910;7.724;2023-05-21T19:38:11;100889.97;;;22.78;76.50
39265;BME280;42646;51.910;7.724;2023-05-21T19:40:41;100909.81;;;22.72;77.94
39265;BME280;42646;51.910;7.724;2023-05-21T19:43:09;100923.59;;;22.63;78.38
39265;BME280;42646;51.910;7.724;2023-05-21T19:45:38;100931.75;;;22.57;78.54
39265;BME280;42646;51.910;7.724;2023-05-21T19:48:06;100940.09;;;22.42;78.53
39265;BME280;42646;51.910;7.724;2023-05-21T19:50:33;100952.81;;;22.22;77.23
39265;BME280;42646;51.910;7.724;2023-05-21T19:53:01;100965.88;;;21.98;76.02
39265;BME280;42646;51.910;7.724;2023-05-21T19:55:29;100985.63;;;21.79;76.29
39265;BME280;42646;51.910;7.724;2023-05-21T19:58:02;100990.34;;;21.64;77.50
39265;BME280;42646;51.910;7.724;2023-05-21T20:00:29;100977.59;;;21.51;79.02
39265;BME280;42646;51.910;7.724;2023-05-21T20:02:57;100965.31;;;21.42;81.71
39265;BME280;42646;51.910;7.724;2023-05-21T20:05:25;100963.78;;;21.32;83.04
39265;BME280;42646;51.910;7.724;2023-05-21T20:07:53;100968.03;;;21.14;83.36
39265;BME280;42646;51.910;7.724;2023-05-21T20:10:21;100960.25;;;20.97;83.89
39265;BME280;42646;51.910;7.724;2023-05-21T20:12:49;100940.41;;;20.84;84.10
39265;BME280;42646;51.910;7.724;2023-05-21T20:15:18;100947.41;;;20.71;84.17
39265;BME280;42646;51.910;7.724;2023-05-21T20:17:46;100942.53;;;20.60;83.52
39265;BME280;42646;51.910;7.724;2023-05-21T20:20:16;100949.03;;;20.44;83.92
39265;BME280;42646;51.910;7.724;2023-05-21T20:22:44;100951.56;;;20.24;84.31
39265;BME280;42646;51.910;7.724;2023-05-21T20:25:12;100962.38;;;20.03;84.82
39265;BME280;42646;51.910;7.724;2023-05-21T20:27:39;100966.28;;;19.79;85.54
39265;BME280;42646;51.910;7.724;2023-05-21T20:30:08;100972.28;;;19.60;86.02
39265;BME280;42646;51.910;7.724;2023-05-21T20:32:37;100974.63;;;19.48;87.02
39265;BME280;42646;51.910;7.724;2023-05-21T20:35:06;100971.94;;;19.33;88.54
39265;BME280;42646;51.910;7.724;2023-05-21T20:37:35;100959.94;;;19.21;89.58
39265;BME280;42646;51.910;7.724;2023-05-21T20:40:05;100935.31;;;19.09;89.33
39265;BME280;42646;51.910;7.724;2023-05-21T20:42:34;100927.31;;;19.01;89.57
39265;BME280;42646;51.910;7.724;2023-05-21T20:45:02;100910.56;;;18.91;89.54
39265;BME280;42646;51.910;7.724;2023-05-21T20:47:30;100904.44;;;18.82;89.40
39265;BME280;42646;51.910;7.724;2023-05-21T20:50:00;100893.78;;;18.74;90.03
39265;BME280;42646;51.910;7.724;2023-05-21T20:52:29;100890.13;;;18.67;90.49
39265;BME280;42646;51.910;7.724;2023-05-21T20:54:57;100881.91;;;18.60;91.11
39265;BME280;42646;51.910;7.724;2023-05-21T20:57:25;100870.03;;;18.55;91.96
39265;BME280;42646;51.910;7.724;2023-05-21T20:59:53;100873.28;;;18.50;92.51
39265;BME280;42646;51.910;7.724;2023-05-21T21:02:22;100866.78;;;18.45;92.51
39265;BME280;42646;51.910;7.724;2023-05-21T21:04:49;100858.22;;;18.41;93.45
39265;BME280;42646;51.910;7.724;2023-05-21T21:07:20;100865.81;;;18.37;93.96
39265;BME280;42646;51.910;7.724;2023-05-21T21:09:48;100858.13;;;18.34;94.61
39265;BME280;42646;51.910;7.724;2023-05-21T21:12:16;100861.38;;;18.30;95.02
39265;BME280;42646;51.910;7.724;2023-05-21T21:14:46;100860.91;;;18.26;95.66
39265;BME280;42646;51.910;7.724;2023-05-21T21:17:15;100871.38;;;18.21;96.93
39265;BME280;42646;51.910;7.724;2023-05-21T21:19:42;100869.25;;;18.17;97.98
39265;BME280;42646;51.910;7.724;2023-05-21T21:22:10;100868.09;;;18.11;99.27
39265;BME280;42646;51.910;7.724;2023-05-21T21:24:39;100881.91;;;18.08;99.83
39265;BME280;42646;51.910;7.724;2023-05-21T21:27:07;100898.47;;;18.05;99.78
39265;BME280;42646;51.910;7.724;2023-05-21T21:29:35;100909.41;;;18.03;98.98
39265;BME280;42646;51.910;7.724;2023-05-21T21:32:03;100938.19;;;18.03;99.03
39265;BME280;42646;51.910;7.724;2023-05-21T21:34:31;100943.09;;;17.99;99.21
39265;BME280;42646;51.910;7.724;2023-05-21T21:36:59;100927.28;;;17.96;98.99
39265;BME280;42646;51.910;7.724;2023-05-21T21:39:27;100931.00;;;17.95;99.24
39265;BME280;42646;51.910;7.724;2023-05-21T21:41:56;100911.31;;;17.95;99.49
39265;BME280;42646;51.910;7.724;2023-05-21T21:44:24;100883.94;;;17.91;100.00
39265;BME280;42646;51.910;7.724;2023-05-21T21:46:52;100867.31;;;17.87;100.00
39265;BME280;42646;51.910;7.724;2023-05-21T21:49:20;100855.69;;;17.87;100.00
39265;BME280;42646;51.910;7.724;2023-05-21T21:51:47;100864.81;;;17.86;100.00
39265;BME280;42646;51.910;7.724;2023-05-21T21:54:16;100872.03;;;17.85;100.00
39265;BME280;42646;51.910;7.724;2023-05-21T21:56:44;100863.28;;;17.83;100.00
39265;BME280;42646;51.910;7.724;2023-05-21T21:59:13;100882.31;;;17.82;100.00
39265;BME280;42646;51.910;7.724;2023-05-21T22:01:41;100886.88;;;17.81;100.00
39265;BME280;42646;51.910;7.724;2023-05-21T22:04:08;100869.41;;;17.77;100.00
39265;BME280;42646;51.910;7.724;2023-05-21T22:06:37;100875.31;;;17.73;100.00
39265;BME280;42646;51.910;7.724;2023-05-21T22:09:06;100880.69;;;17.73;100.00
39265;BME280;42646;51.910;7.724;2023-05-21T22:11:34;100881.38;;;17.75;100.00
39265;BME280;42646;51.910;7.724;2023-05-21T22:14:01;100879.50;;;17.75;100.00
39265;BME280;42646;51.910;7.724;2023-05-21T22:16:32;100876.81;;;17.75;100.00
39265;BME280;42646;51.910;7.724;2023-05-21T22:18:59;100854.47;;;17.75;100.00
39265;BME280;42646;51.910;7.724;2023-05-21T22:21:28;100850.94;;;17.74;100.00
39265;BME280;42646;51.910;7.724;2023-05-21T22:23:58;100843.00;;;17.73;100.00
39265;BME280;42646;51.910;7.724;2023-05-21T22:26:26;100840.16;;;17.74;100.00
39265;BME280;42646;51.910;7.724;2023-05-21T22:28:53;100832.75;;;17.76;100.00